sensor_id;sensor_type;location;lat;lon;timestamp;P1;durP1;ratioP1;P2;durP2;ratioP2
25023;SDS011;13033;50.936;5.334;2022-12-07T00:01:32;33.88;;;20.85;;
25023;SDS011;13033;50.936;5.334;2022-12-07T00:04:01;36.35;;;21.73;;
25023;SDS011;13033;50.936;5.334;2022-12-07T00:06:32;32.40;;;20.90;;
25023;SDS011;13033;50.936;5.334;2022-12-07T00:09:05;32.83;;;20.40;;
25023;SDS011;13033;50.936;5.334;2022-12-07T00:11:32;33.58;;;20.48;;
25023;SDS011;13033;50.936;5.334;2022-12-07T00:13:59;33.47;;;20.70;;
25023;SDS011;13033;50.936;5.334;2022-12-07T00:16:26;35.83;;;21.48;;
25023;SDS011;13033;50.936;5.334;2022-12-07T00:18:54;36.22;;;21.35;;
25023;SDS011;13033;50.936;5.334;2022-12-07T00:21:22;42.25;;;22.13;;
25023;SDS011;13033;50.936;5.334;2022-12-07T00:23:49;35.47;;;21.65;;
25023;SDS011;13033;50.936;5.334;2022-12-07T00:26:20;33.47;;;22.20;;
25023;SDS011;13033;50.936;5.334;2022-12-07T00:28:48;35.23;;;22.20;;
25023;SDS011;13033;50.936;5.334;2022-12-07T00:31:16;38.90;;;22.92;;
25023;SDS011;13033;50.936;5.334;2022-12-07T00:33:43;39.20;;;22.30;;
25023;SDS011;13033;50.936;5.334;2022-12-07T00:36:10;37.60;;;23.00;;
25023;SDS011;13033;50.936;5.334;2022-12-07T00:38:38;36.05;;;22.98;;
25023;SDS011;13033;50.936;5.334;2022-12-07T00:41:05;38.03;;;24.13;;
25023;SDS011;13033;50.936;5.334;2022-12-07T00:43:34;39.33;;;22.50;;
25023;SDS011;13033;50.936;5.334;2022-12-07T00:45:59;36.90;;;22.40;;
25023;SDS011;13033;50.936;5.334;2022-12-07T00:48:25;40.45;;;23.20;;
25023;SDS011;13033;50.936;5.334;2022-12-07T00:50:51;38.47;;;23.40;;
25023;SDS011;13033;50.936;5.334;2022-12-07T00:53:17;72.10;;;36.72;;
25023;SDS011;13033;50.936;5.334;2022-12-07T00:55:44;35.75;;;23.40;;
25023;SDS011;13033;50.936;5.334;2022-12-07T00:58:10;37.28;;;22.73;;
25023;SDS011;13033;50.936;5.334;2022-12-07T01:00:36;39.40;;;23.95;;
25023;SDS011;13033;50.936;5.334;2022-12-07T01:03:04;37.30;;;23.42;;
25023;SDS011;13033;50.936;5.334;2022-12-07T01:05:30;39.40;;;24.38;;
25023;SDS011;13033;50.936;5.334;2022-12-07T01:07:56;38.85;;;22.98;;
25023;SDS011;13033;50.936;5.334;2022-12-07T01:10:22;37.38;;;23.50;;
25023;SDS011;13033;50.936;5.334;2022-12-07T01:12:48;32.95;;;22.27;;
25023;SDS011;13033;50.936;5.334;2022-12-07T01:15:13;35.75;;;21.38;;
25023;SDS011;13033;50.936;5.334;2022-12-07T01:17:39;39.13;;;22.85;;
25023;SDS011;13033;50.936;5.334;2022-12-07T01:20:05;35.38;;;22.35;;
25023;SDS011;13033;50.936;5.334;2022-12-07T01:22:36;39.97;;;23.13;;
25023;SDS011;13033;50.936;5.334;2022-12-07T01:25:02;36.90;;;22.38;;
25023;SDS011;13033;50.936;5.334;2022-12-07T01:27:29;34.13;;;21.60;;
25023;SDS011;13033;50.936;5.334;2022-12-07T01:29:54;35.47;;;21.55;;
25023;SDS011;13033;50.936;5.334;2022-12-07T01:32:20;39.35;;;22.48;;
25023;SDS011;13033;50.936;5.334;2022-12-07T01:34:47;40.13;;;22.15;;
25023;SDS011;13033;50.936;5.334;2022-12-07T01:37:13;36.47;;;22.05;;
25023;SDS011;13033;50.936;5.334;2022-12-07T01:39:38;32.78;;;20.85;;
25023;SDS011;13033;50.936;5.334;2022-12-07T01:42:04;33.42;;;21.20;;
25023;SDS011;13033;50.936;5.334;2022-12-07T01:44:30;36.70;;;21.67;;
25023;SDS011;13033;50.936;5.334;2022-12-07T01:47:00;33.97;;;21.92;;
25023;SDS011;13033;50.936;5.334;2022-12-07T01:54:46;31.92;;;22.45;;
25023;SDS011;13033;50.936;5.334;2022-12-07T01:57:14;35.88;;;22.33;;
25023;SDS011;13033;50.936;5.334;2022-12-07T01:59:43;33.55;;;21.65;;
25023;SDS011;13033;50.936;5.334;2022-12-07T02:02:12;38.25;;;23.40;;
25023;SDS011;13033;50.936;5.334;2022-12-07T02:04:44;36.10;;;23.52;;
25023;SDS011;13033;50.936;5.334;2022-12-07T02:07:11;34.47;;;22.00;;
25023;SDS011;13033;50.936;5.334;2022-12-07T02:09:37;33.78;;;24.23;;
25023;SDS011;13033;50.936;5.334;2022-12-07T02:12:03;37.90;;;24.52;;
25023;SDS011;13033;50.936;5.334;2022-12-07T02:14:29;40.05;;;23.95;;
25023;SDS011;13033;50.936;5.334;2022-12-07T02:17:02;41.17;;;24.73;;
25023;SDS011;13033;50.936;5.334;2022-12-07T02:28:06;39.00;;;24.05;;
25023;SDS011;13033;50.936;5.334;2022-12-07T02:30:34;40.97;;;24.75;;
25023;SDS011;13033;50.936;5.334;2022-12-07T02:33:05;43.58;;;24.08;;
25023;SDS011;13033;50.936;5.334;2022-12-07T02:35:41;35.95;;;24.33;;
25023;SDS011;13033;50.936;5.334;2022-12-07T02:38:20;37.33;;;24.23;;
25023;SDS011;13033;50.936;5.334;2022-12-07T02:41:27;39.60;;;25.17;;
25023;SDS011;13033;50.936;5.334;2022-12-07T02:44:01;40.97;;;25.40;;
25023;SDS011;13033;50.936;5.334;2022-12-07T02:46:44;37.67;;;24.33;;
25023;SDS011;13033;50.936;5.334;2022-12-07T02:49:14;41.22;;;24.52;;
25023;SDS011;13033;50.936;5.334;2022-12-07T02:51:41;43.42;;;24.98;;
25023;SDS011;13033;50.936;5.334;2022-12-07T02:54:17;41.72;;;26.02;;
25023;SDS011;13033;50.936;5.334;2022-12-07T03:07:21;43.08;;;26.33;;
25023;SDS011;13033;50.936;5.334;2022-12-07T03:12:20;47.17;;;26.50;;
25023;SDS011;13033;50.936;5.334;2022-12-07T03:15:01;40.63;;;27.85;;
25023;SDS011;13033;50.936;5.334;2022-12-07T03:17:32;48.75;;;27.67;;
25023;SDS011;13033;50.936;5.334;2022-12-07T03:20:02;47.40;;;27.25;;
25023;SDS011;13033;50.936;5.334;2022-12-07T03:22:31;46.85;;;28.23;;
25023;SDS011;13033;50.936;5.334;2022-12-07T03:25:02;45.03;;;29.02;;
25023;SDS011;13033;50.936;5.334;2022-12-07T03:30:00;47.20;;;29.08;;
25023;SDS011;13033;50.936;5.334;2022-12-07T03:32:34;52.90;;;29.35;;
25023;SDS011;13033;50.936;5.334;2022-12-07T03:35:06;48.33;;;29.73;;
25023;SDS011;13033;50.936;5.334;2022-12-07T03:37:40;52.05;;;30.65;;
25023;SDS011;13033;50.936;5.334;2022-12-07T03:40:11;49.83;;;30.40;;
25023;SDS011;13033;50.936;5.334;2022-12-07T03:42:48;46.58;;;30.25;;
25023;SDS011;13033;50.936;5.334;2022-12-07T03:45:15;47.50;;;29.95;;
25023;SDS011;13033;50.936;5.334;2022-12-07T03:53:36;47.65;;;29.88;;
25023;SDS011;13033;50.936;5.334;2022-12-07T03:56:09;47.45;;;29.17;;
25023;SDS011;13033;50.936;5.334;2022-12-07T03:58:36;47.50;;;29.05;;
25023;SDS011;13033;50.936;5.334;2022-12-07T04:01:04;46.00;;;28.52;;
25023;SDS011;13033;50.936;5.334;2022-12-07T04:03:30;46.63;;;29.35;;
25023;SDS011;13033;50.936;5.334;2022-12-07T04:05:56;49.17;;;30.52;;
25023;SDS011;13033;50.936;5.334;2022-12-07T04:08:22;48.47;;;30.45;;
25023;SDS011;13033;50.936;5.334;2022-12-07T04:10:48;50.25;;;29.55;;
25023;SDS011;13033;50.936;5.334;2022-12-07T04:13:14;53.75;;;31.80;;
25023;SDS011;13033;50.936;5.334;2022-12-07T04:15:39;47.50;;;30.48;;
25023;SDS011;13033;50.936;5.334;2022-12-07T04:18:06;49.63;;;31.73;;
25023;SDS011;13033;50.936;5.334;2022-12-07T04:20:32;50.47;;;31.10;;
25023;SDS011;13033;50.936;5.334;2022-12-07T04:22:57;61.33;;;32.55;;
25023;SDS011;13033;50.936;5.334;2022-12-07T04:25:23;54.10;;;33.15;;
25023;SDS011;13033;50.936;5.334;2022-12-07T04:27:48;56.92;;;33.83;;
25023;SDS011;13033;50.936;5.334;2022-12-07T04:30:14;57.53;;;34.20;;
25023;SDS011;13033;50.936;5.334;2022-12-07T04:32:40;55.17;;;34.97;;
25023;SDS011;13033;50.936;5.334;2022-12-07T04:35:06;59.47;;;36.50;;
25023;SDS011;13033;50.936;5.334;2022-12-07T04:37:32;58.20;;;36.20;;
25023;SDS011;13033;50.936;5.334;2022-12-07T04:39:57;59.08;;;36.20;;
25023;SDS011;13033;50.936;5.334;2022-12-07T04:42:23;63.28;;;36.60;;
25023;SDS011;13033;50.936;5.334;2022-12-07T04:44:49;63.50;;;36.58;;
25023;SDS011;13033;50.936;5.334;2022-12-07T04:47:15;62.35;;;36.78;;
25023;SDS011;13033;50.936;5.334;2022-12-07T04:49:41;53.30;;;34.90;;
25023;SDS011;13033;50.936;5.334;2022-12-07T04:52:07;62.55;;;35.47;;
25023;SDS011;13033;50.936;5.334;2022-12-07T04:54:33;51.65;;;33.50;;
25023;SDS011;13033;50.936;5.334;2022-12-07T04:56:59;49.25;;;30.95;;
25023;SDS011;13033;50.936;5.334;2022-12-07T04:59:25;49.78;;;32.17;;
25023;SDS011;13033;50.936;5.334;2022-12-07T05:01:51;55.70;;;33.40;;
25023;SDS011;13033;50.936;5.334;2022-12-07T05:04:17;57.80;;;32.85;;
25023;SDS011;13033;50.936;5.334;2022-12-07T05:06:43;55.72;;;33.13;;
25023;SDS011;13033;50.936;5.334;2022-12-07T05:09:08;56.40;;;32.75;;
25023;SDS011;13033;50.936;5.334;2022-12-07T05:11:34;61.90;;;33.22;;
25023;SDS011;13033;50.936;5.334;2022-12-07T05:14:07;57.95;;;33.28;;
25023;SDS011;13033;50.936;5.334;2022-12-07T05:16:35;61.75;;;35.25;;
25023;SDS011;13033;50.936;5.334;2022-12-07T05:19:02;65.03;;;34.75;;
25023;SDS011;13033;50.936;5.334;2022-12-07T05:21:28;62.72;;;35.90;;
25023;SDS011;13033;50.936;5.334;2022-12-07T05:23:53;60.28;;;35.28;;
25023;SDS011;13033;50.936;5.334;2022-12-07T05:26:19;65.00;;;36.55;;
25023;SDS011;13033;50.936;5.334;2022-12-07T05:28:45;62.60;;;36.65;;
25023;SDS011;13033;50.936;5.334;2022-12-07T05:31:14;72.50;;;38.50;;
25023;SDS011;13033;50.936;5.334;2022-12-07T05:33:40;65.80;;;36.83;;
25023;SDS011;13033;50.936;5.334;2022-12-07T05:36:05;69.90;;;40.65;;
25023;SDS011;13033;50.936;5.334;2022-12-07T05:38:32;65.28;;;36.40;;
25023;SDS011;13033;50.936;5.334;2022-12-07T05:41:04;64.88;;;37.42;;
25023;SDS011;13033;50.936;5.334;2022-12-07T05:43:31;69.10;;;36.65;;
25023;SDS011;13033;50.936;5.334;2022-12-07T05:45:57;64.15;;;36.55;;
25023;SDS011;13033;50.936;5.334;2022-12-07T05:48:23;59.17;;;35.13;;
25023;SDS011;13033;50.936;5.334;2022-12-07T05:50:50;57.28;;;35.38;;
25023;SDS011;13033;50.936;5.334;2022-12-07T05:53:16;58.40;;;34.67;;
25023;SDS011;13033;50.936;5.334;2022-12-07T05:55:42;61.72;;;34.40;;
25023;SDS011;13033;50.936;5.334;2022-12-07T05:58:08;52.03;;;32.45;;
25023;SDS011;13033;50.936;5.334;2022-12-07T06:00:56;55.25;;;31.38;;
25023;SDS011;13033;50.936;5.334;2022-12-07T06:03:22;57.15;;;33.70;;
25023;SDS011;13033;50.936;5.334;2022-12-07T06:05:48;62.40;;;35.70;;
25023;SDS011;13033;50.936;5.334;2022-12-07T06:08:13;54.80;;;34.38;;
25023;SDS011;13033;50.936;5.334;2022-12-07T06:10:40;59.83;;;33.70;;
25023;SDS011;13033;50.936;5.334;2022-12-07T06:13:06;58.33;;;33.55;;
25023;SDS011;13033;50.936;5.334;2022-12-07T06:15:35;59.88;;;34.47;;
25023;SDS011;13033;50.936;5.334;2022-12-07T06:18:01;55.70;;;32.60;;
25023;SDS011;13033;50.936;5.334;2022-12-07T06:20:27;54.45;;;32.80;;
25023;SDS011;13033;50.936;5.334;2022-12-07T06:22:52;50.80;;;31.58;;
25023;SDS011;13033;50.936;5.334;2022-12-07T06:25:18;53.10;;;32.28;;
25023;SDS011;13033;50.936;5.334;2022-12-07T06:27:44;51.85;;;32.55;;
25023;SDS011;13033;50.936;5.334;2022-12-07T06:30:09;51.22;;;32.83;;
25023;SDS011;13033;50.936;5.334;2022-12-07T06:32:36;55.55;;;32.00;;
25023;SDS011;13033;50.936;5.334;2022-12-07T06:35:02;50.85;;;30.95;;
25023;SDS011;13033;50.936;5.334;2022-12-07T06:37:28;51.70;;;30.08;;
25023;SDS011;13033;50.936;5.334;2022-12-07T06:39:54;45.42;;;30.35;;
25023;SDS011;13033;50.936;5.334;2022-12-07T06:42:19;43.47;;;28.92;;
25023;SDS011;13033;50.936;5.334;2022-12-07T06:44:45;45.20;;;28.33;;
25023;SDS011;13033;50.936;5.334;2022-12-07T06:47:11;50.20;;;29.27;;
25023;SDS011;13033;50.936;5.334;2022-12-07T06:49:36;50.55;;;30.10;;
25023;SDS011;13033;50.936;5.334;2022-12-07T06:52:02;48.65;;;29.75;;
25023;SDS011;13033;50.936;5.334;2022-12-07T06:54:29;45.65;;;29.05;;
25023;SDS011;13033;50.936;5.334;2022-12-07T06:56:55;50.88;;;28.48;;
25023;SDS011;13033;50.936;5.334;2022-12-07T06:59:21;49.45;;;29.42;;
25023;SDS011;13033;50.936;5.334;2022-12-07T07:01:46;48.83;;;28.83;;
25023;SDS011;13033;50.936;5.334;2022-12-07T07:04:12;48.63;;;29.40;;
25023;SDS011;13033;50.936;5.334;2022-12-07T07:06:37;44.17;;;29.33;;
25023;SDS011;13033;50.936;5.334;2022-12-07T07:09:03;54.10;;;31.30;;
25023;SDS011;13033;50.936;5.334;2022-12-07T07:11:29;49.78;;;30.33;;
25023;SDS011;13033;50.936;5.334;2022-12-07T07:13:54;49.60;;;29.83;;
25023;SDS011;13033;50.936;5.334;2022-12-07T07:16:22;51.53;;;29.25;;
25023;SDS011;13033;50.936;5.334;2022-12-07T07:18:49;48.15;;;31.20;;
25023;SDS011;13033;50.936;5.334;2022-12-07T07:21:14;49.63;;;30.92;;
25023;SDS011;13033;50.936;5.334;2022-12-07T07:23:40;52.28;;;31.40;;
25023;SDS011;13033;50.936;5.334;2022-12-07T07:26:06;58.53;;;32.90;;
25023;SDS011;13033;50.936;5.334;2022-12-07T07:28:31;55.13;;;32.70;;
25023;SDS011;13033;50.936;5.334;2022-12-07T07:30:57;55.47;;;32.35;;
25023;SDS011;13033;50.936;5.334;2022-12-07T07:33:23;58.63;;;32.47;;
25023;SDS011;13033;50.936;5.334;2022-12-07T07:35:48;54.88;;;31.40;;
25023;SDS011;13033;50.936;5.334;2022-12-07T07:38:14;53.42;;;31.55;;
25023;SDS011;13033;50.936;5.334;2022-12-07T07:40:39;55.42;;;32.45;;
25023;SDS011;13033;50.936;5.334;2022-12-07T07:43:05;55.00;;;31.75;;
25023;SDS011;13033;50.936;5.334;2022-12-07T07:45:31;58.00;;;32.45;;
25023;SDS011;13033;50.936;5.334;2022-12-07T07:47:56;52.30;;;31.23;;
25023;SDS011;13033;50.936;5.334;2022-12-07T07:50:22;53.83;;;30.95;;
25023;SDS011;13033;50.936;5.334;2022-12-07T07:52:48;53.97;;;30.27;;
25023;SDS011;13033;50.936;5.334;2022-12-07T07:55:14;56.35;;;31.20;;
25023;SDS011;13033;50.936;5.334;2022-12-07T07:57:40;56.72;;;32.15;;
25023;SDS011;13033;50.936;5.334;2022-12-07T08:00:10;52.03;;;30.88;;
25023;SDS011;13033;50.936;5.334;2022-12-07T08:02:37;52.58;;;30.60;;
25023;SDS011;13033;50.936;5.334;2022-12-07T08:05:03;59.00;;;30.08;;
25023;SDS011;13033;50.936;5.334;2022-12-07T08:07:28;55.00;;;31.35;;
25023;SDS011;13033;50.936;5.334;2022-12-07T08:09:54;54.55;;;30.83;;
25023;SDS011;13033;50.936;5.334;2022-12-07T08:12:20;56.50;;;30.67;;
25023;SDS011;13033;50.936;5.334;2022-12-07T08:14:45;55.35;;;32.35;;
25023;SDS011;13033;50.936;5.334;2022-12-07T08:17:11;56.40;;;30.13;;
25023;SDS011;13033;50.936;5.334;2022-12-07T08:19:37;54.35;;;31.58;;
25023;SDS011;13033;50.936;5.334;2022-12-07T08:22:03;51.13;;;30.58;;
25023;SDS011;13033;50.936;5.334;2022-12-07T08:24:28;64.32;;;30.95;;
25023;SDS011;13033;50.936;5.334;2022-12-07T08:26:54;59.15;;;32.38;;
25023;SDS011;13033;50.936;5.334;2022-12-07T08:29:20;57.65;;;32.90;;
25023;SDS011;13033;50.936;5.334;2022-12-07T08:31:46;54.40;;;30.55;;
25023;SDS011;13033;50.936;5.334;2022-12-07T08:34:12;59.90;;;32.42;;
25023;SDS011;13033;50.936;5.334;2022-12-07T08:36:38;52.20;;;32.55;;
25023;SDS011;13033;50.936;5.334;2022-12-07T08:39:04;58.28;;;31.90;;
25023;SDS011;13033;50.936;5.334;2022-12-07T08:41:31;50.78;;;30.23;;
25023;SDS011;13033;50.936;5.334;2022-12-07T08:43:57;49.53;;;28.83;;
25023;SDS011;13033;50.936;5.334;2022-12-07T08:46:28;50.20;;;29.92;;
25023;SDS011;13033;50.936;5.334;2022-12-07T08:49:09;45.17;;;27.60;;
25023;SDS011;13033;50.936;5.334;2022-12-07T08:51:47;46.65;;;27.83;;
25023;SDS011;13033;50.936;5.334;2022-12-07T08:54:14;43.60;;;27.17;;
25023;SDS011;13033;50.936;5.334;2022-12-07T08:56:42;43.65;;;26.88;;
25023;SDS011;13033;50.936;5.334;2022-12-07T08:59:10;47.35;;;25.17;;
25023;SDS011;13033;50.936;5.334;2022-12-07T09:01:40;40.17;;;25.15;;
25023;SDS011;13033;50.936;5.334;2022-12-07T09:04:05;36.40;;;24.75;;
25023;SDS011;13033;50.936;5.334;2022-12-07T09:06:31;39.55;;;23.67;;
25023;SDS011;13033;50.936;5.334;2022-12-07T09:08:57;42.10;;;23.85;;
25023;SDS011;13033;50.936;5.334;2022-12-07T09:11:25;36.03;;;22.50;;
25023;SDS011;13033;50.936;5.334;2022-12-07T09:13:51;35.15;;;22.40;;
25023;SDS011;13033;50.936;5.334;2022-12-07T09:16:17;37.42;;;23.75;;
25023;SDS011;13033;50.936;5.334;2022-12-07T09:18:42;34.42;;;22.08;;
25023;SDS011;13033;50.936;5.334;2022-12-07T09:21:08;36.15;;;22.02;;
25023;SDS011;13033;50.936;5.334;2022-12-07T09:23:34;37.00;;;20.75;;
25023;SDS011;13033;50.936;5.334;2022-12-07T09:26:00;32.03;;;21.08;;
25023;SDS011;13033;50.936;5.334;2022-12-07T09:28:27;30.52;;;20.95;;
25023;SDS011;13033;50.936;5.334;2022-12-07T09:30:53;33.38;;;20.27;;
25023;SDS011;13033;50.936;5.334;2022-12-07T09:33:18;33.25;;;19.50;;
25023;SDS011;13033;50.936;5.334;2022-12-07T09:35:45;35.20;;;18.50;;
25023;SDS011;13033;50.936;5.334;2022-12-07T09:38:12;31.10;;;19.17;;
25023;SDS011;13033;50.936;5.334;2022-12-07T09:40:38;28.92;;;17.80;;
25023;SDS011;13033;50.936;5.334;2022-12-07T09:43:04;31.92;;;17.83;;
25023;SDS011;13033;50.936;5.334;2022-12-07T09:45:33;27.10;;;15.98;;
25023;SDS011;13033;50.936;5.334;2022-12-07T09:48:02;26.92;;;15.73;;
25023;SDS011;13033;50.936;5.334;2022-12-07T09:50:29;27.40;;;15.13;;
25023;SDS011;13033;50.936;5.334;2022-12-07T09:53:02;36.75;;;15.00;;
25023;SDS011;13033;50.936;5.334;2022-12-07T09:55:34;31.83;;;13.77;;
25023;SDS011;13033;50.936;5.334;2022-12-07T09:58:02;25.65;;;13.35;;
25023;SDS011;13033;50.936;5.334;2022-12-07T10:00:28;23.42;;;12.75;;
25023;SDS011;13033;50.936;5.334;2022-12-07T10:02:56;27.45;;;13.73;;
25023;SDS011;13033;50.936;5.334;2022-12-07T10:05:24;18.73;;;12.48;;
25023;SDS011;13033;50.936;5.334;2022-12-07T10:07:50;19.60;;;12.68;;
25023;SDS011;13033;50.936;5.334;2022-12-07T10:10:26;22.95;;;13.45;;
25023;SDS011;13033;50.936;5.334;2022-12-07T10:13:01;22.15;;;11.55;;
25023;SDS011;13033;50.936;5.334;2022-12-07T10:26:12;19.15;;;10.30;;
25023;SDS011;13033;50.936;5.334;2022-12-07T10:28:46;22.70;;;11.07;;
25023;SDS011;13033;50.936;5.334;2022-12-07T10:31:17;18.02;;;10.27;;
25023;SDS011;13033;50.936;5.334;2022-12-07T10:33:49;20.15;;;9.68;;
25023;SDS011;13033;50.936;5.334;2022-12-07T10:36:21;19.90;;;10.75;;
25023;SDS011;13033;50.936;5.334;2022-12-07T10:38:51;21.15;;;10.68;;
25023;SDS011;13033;50.936;5.334;2022-12-07T10:44:25;16.55;;;9.85;;
25023;SDS011;13033;50.936;5.334;2022-12-07T10:52:52;23.95;;;9.38;;
25023;SDS011;13033;50.936;5.334;2022-12-07T10:58:23;17.67;;;11.02;;
25023;SDS011;13033;50.936;5.334;2022-12-07T11:09:53;19.88;;;10.32;;
25023;SDS011;13033;50.936;5.334;2022-12-07T11:12:57;19.08;;;9.70;;
25023;SDS011;13033;50.936;5.334;2022-12-07T11:18:26;14.82;;;8.65;;
25023;SDS011;13033;50.936;5.334;2022-12-07T11:35:22;19.75;;;8.07;;
25023;SDS011;13033;50.936;5.334;2022-12-07T11:37:57;14.55;;;8.43;;
25023;SDS011;13033;50.936;5.334;2022-12-07T11:40:33;15.45;;;7.70;;
25023;SDS011;13033;50.936;5.334;2022-12-07T11:45:37;15.02;;;6.80;;
25023;SDS011;13033;50.936;5.334;2022-12-07T11:48:21;13.18;;;6.10;;
25023;SDS011;13033;50.936;5.334;2022-12-07T11:51:03;18.73;;;7.15;;
25023;SDS011;13033;50.936;5.334;2022-12-07T12:06:44;13.02;;;5.55;;
25023;SDS011;13033;50.936;5.334;2022-12-07T12:09:14;15.35;;;5.55;;
25023;SDS011;13033;50.936;5.334;2022-12-07T12:11:49;15.07;;;6.18;;
25023;SDS011;13033;50.936;5.334;2022-12-07T12:23:26;11.68;;;6.03;;
25023;SDS011;13033;50.936;5.334;2022-12-07T12:25:57;12.18;;;5.20;;
25023;SDS011;13033;50.936;5.334;2022-12-07T12:28:30;15.77;;;5.95;;
25023;SDS011;13033;50.936;5.334;2022-12-07T12:33:54;15.30;;;5.70;;
25023;SDS011;13033;50.936;5.334;2022-12-07T12:36:23;12.75;;;5.40;;
25023;SDS011;13033;50.936;5.334;2022-12-07T12:46:59;14.18;;;4.45;;
25023;SDS011;13033;50.936;5.334;2022-12-07T12:49:42;11.23;;;5.30;;
25023;SDS011;13033;50.936;5.334;2022-12-07T12:55:00;6.97;;;4.05;;
25023;SDS011;13033;50.936;5.334;2022-12-07T12:57:38;9.18;;;3.60;;
25023;SDS011;13033;50.936;5.334;2022-12-07T13:00:22;10.98;;;3.05;;
25023;SDS011;13033;50.936;5.334;2022-12-07T13:02:56;7.10;;;3.53;;
25023;SDS011;13033;50.936;5.334;2022-12-07T13:05:30;8.10;;;3.00;;
25023;SDS011;13033;50.936;5.334;2022-12-07T13:08:17;7.28;;;3.03;;
25023;SDS011;13033;50.936;5.334;2022-12-07T13:10:48;8.55;;;3.30;;
25023;SDS011;13033;50.936;5.334;2022-12-07T13:26:18;9.93;;;4.28;;
25023;SDS011;13033;50.936;5.334;2022-12-07T13:36:59;9.82;;;3.38;;
25023;SDS011;13033;50.936;5.334;2022-12-07T13:39:27;7.80;;;3.25;;
25023;SDS011;13033;50.936;5.334;2022-12-07T13:41:53;10.88;;;3.67;;
25023;SDS011;13033;50.936;5.334;2022-12-07T13:44:22;5.57;;;2.72;;
25023;SDS011;13033;50.936;5.334;2022-12-07T13:49:27;9.60;;;3.28;;
25023;SDS011;13033;50.936;5.334;2022-12-07T13:51:54;8.65;;;2.35;;
25023;SDS011;13033;50.936;5.334;2022-12-07T13:54:43;9.43;;;2.60;;
25023;SDS011;13033;50.936;5.334;2022-12-07T13:57:11;10.45;;;2.55;;
25023;SDS011;13033;50.936;5.334;2022-12-07T13:59:37;8.43;;;2.20;;
25023;SDS011;13033;50.936;5.334;2022-12-07T14:02:16;8.30;;;2.90;;
25023;SDS011;13033;50.936;5.334;2022-12-07T14:04:49;10.95;;;3.10;;
25023;SDS011;13033;50.936;5.334;2022-12-07T14:07:21;9.38;;;4.28;;
25023;SDS011;13033;50.936;5.334;2022-12-07T14:10:03;12.18;;;4.38;;
25023;SDS011;13033;50.936;5.334;2022-12-07T14:14:58;12.88;;;4.07;;
25023;SDS011;13033;50.936;5.334;2022-12-07T14:17:26;13.27;;;4.70;;
25023;SDS011;13033;50.936;5.334;2022-12-07T14:19:53;9.15;;;5.03;;
25023;SDS011;13033;50.936;5.334;2022-12-07T14:24:59;15.82;;;6.07;;
25023;SDS011;13033;50.936;5.334;2022-12-07T14:27:47;18.75;;;5.80;;
25023;SDS011;13033;50.936;5.334;2022-12-07T14:30:32;13.52;;;6.03;;
25023;SDS011;13033;50.936;5.334;2022-12-07T14:33:00;10.80;;;5.72;;
25023;SDS011;13033;50.936;5.334;2022-12-07T14:35:27;10.60;;;5.93;;
25023;SDS011;13033;50.936;5.334;2022-12-07T14:37:54;12.85;;;6.10;;
25023;SDS011;13033;50.936;5.334;2022-12-07T14:40:25;13.55;;;7.43;;
25023;SDS011;13033;50.936;5.334;2022-12-07T14:43:02;12.52;;;6.80;;
25023;SDS011;13033;50.936;5.334;2022-12-07T14:45:40;13.60;;;6.65;;
25023;SDS011;13033;50.936;5.334;2022-12-07T14:48:12;12.77;;;6.78;;
25023;SDS011;13033;50.936;5.334;2022-12-07T14:50:49;13.10;;;6.70;;
25023;SDS011;13033;50.936;5.334;2022-12-07T14:53:18;10.88;;;7.25;;
25023;SDS011;13033;50.936;5.334;2022-12-07T14:55:51;9.75;;;6.57;;
25023;SDS011;13033;50.936;5.334;2022-12-07T14:58:17;9.73;;;5.95;;
25023;SDS011;13033;50.936;5.334;2022-12-07T15:00:43;12.30;;;5.80;;
25023;SDS011;13033;50.936;5.334;2022-12-07T15:03:09;12.50;;;6.32;;
25023;SDS011;13033;50.936;5.334;2022-12-07T15:05:35;10.65;;;6.60;;
25023;SDS011;13033;50.936;5.334;2022-12-07T15:08:02;13.75;;;7.55;;
25023;SDS011;13033;50.936;5.334;2022-12-07T15:10:29;8.23;;;6.30;;
25023;SDS011;13033;50.936;5.334;2022-12-07T15:12:57;15.77;;;7.00;;
25023;SDS011;13033;50.936;5.334;2022-12-07T15:15:47;12.20;;;6.55;;
25023;SDS011;13033;50.936;5.334;2022-12-07T15:18:14;12.07;;;7.32;;
25023;SDS011;13033;50.936;5.334;2022-12-07T15:20:40;18.35;;;7.50;;
25023;SDS011;13033;50.936;5.334;2022-12-07T15:23:06;16.23;;;7.30;;
25023;SDS011;13033;50.936;5.334;2022-12-07T15:25:32;11.30;;;6.78;;
25023;SDS011;13033;50.936;5.334;2022-12-07T15:27:57;11.65;;;6.47;;
25023;SDS011;13033;50.936;5.334;2022-12-07T15:30:24;11.98;;;7.30;;
25023;SDS011;13033;50.936;5.334;2022-12-07T15:32:50;12.02;;;7.63;;
25023;SDS011;13033;50.936;5.334;2022-12-07T15:35:16;12.23;;;7.90;;
25023;SDS011;13033;50.936;5.334;2022-12-07T15:37:42;14.30;;;7.60;;
25023;SDS011;13033;50.936;5.334;2022-12-07T15:40:08;15.13;;;7.60;;
25023;SDS011;13033;50.936;5.334;2022-12-07T15:42:35;11.85;;;7.25;;
25023;SDS011;13033;50.936;5.334;2022-12-07T15:45:01;12.38;;;7.20;;
25023;SDS011;13033;50.936;5.334;2022-12-07T15:47:37;12.32;;;7.68;;
25023;SDS011;13033;50.936;5.334;2022-12-07T15:50:04;17.05;;;7.80;;
25023;SDS011;13033;50.936;5.334;2022-12-07T15:52:32;14.82;;;7.72;;
25023;SDS011;13033;50.936;5.334;2022-12-07T15:54:58;14.48;;;8.38;;
25023;SDS011;13033;50.936;5.334;2022-12-07T15:57:25;13.55;;;7.72;;
25023;SDS011;13033;50.936;5.334;2022-12-07T15:59:51;13.25;;;7.88;;
25023;SDS011;13033;50.936;5.334;2022-12-07T16:02:17;14.55;;;7.43;;
25023;SDS011;13033;50.936;5.334;2022-12-07T16:04:43;9.55;;;6.47;;
25023;SDS011;13033;50.936;5.334;2022-12-07T16:07:09;6.18;;;4.63;;
25023;SDS011;13033;50.936;5.334;2022-12-07T16:09:36;9.85;;;5.07;;
25023;SDS011;13033;50.936;5.334;2022-12-07T16:12:02;8.02;;;4.40;;
25023;SDS011;13033;50.936;5.334;2022-12-07T16:14:28;8.75;;;5.80;;
25023;SDS011;13033;50.936;5.334;2022-12-07T16:16:54;8.45;;;5.53;;
25023;SDS011;13033;50.936;5.334;2022-12-07T16:19:19;9.10;;;6.00;;
25023;SDS011;13033;50.936;5.334;2022-12-07T16:21:45;12.18;;;7.15;;
25023;SDS011;13033;50.936;5.334;2022-12-07T16:24:11;6.90;;;6.03;;
25023;SDS011;13033;50.936;5.334;2022-12-07T16:26:38;9.20;;;6.05;;
25023;SDS011;13033;50.936;5.334;2022-12-07T16:29:03;10.95;;;6.50;;
25023;SDS011;13033;50.936;5.334;2022-12-07T16:31:29;9.45;;;5.88;;
25023;SDS011;13033;50.936;5.334;2022-12-07T16:33:56;10.98;;;5.63;;
25023;SDS011;13033;50.936;5.334;2022-12-07T16:36:23;8.40;;;5.43;;
25023;SDS011;13033;50.936;5.334;2022-12-07T16:38:50;9.32;;;6.00;;
25023;SDS011;13033;50.936;5.334;2022-12-07T16:41:16;8.52;;;6.13;;
25023;SDS011;13033;50.936;5.334;2022-12-07T16:43:41;10.98;;;6.57;;
25023;SDS011;13033;50.936;5.334;2022-12-07T16:46:07;10.43;;;6.40;;
25023;SDS011;13033;50.936;5.334;2022-12-07T16:48:39;9.93;;;6.45;;
25023;SDS011;13033;50.936;5.334;2022-12-07T16:51:06;13.20;;;6.90;;
25023;SDS011;13033;50.936;5.334;2022-12-07T16:53:35;13.65;;;6.95;;
25023;SDS011;13033;50.936;5.334;2022-12-07T16:56:02;11.07;;;6.28;;
25023;SDS011;13033;50.936;5.334;2022-12-07T16:58:28;11.10;;;6.93;;
25023;SDS011;13033;50.936;5.334;2022-12-07T17:00:54;9.48;;;6.70;;
25023;SDS011;13033;50.936;5.334;2022-12-07T17:03:20;12.38;;;6.70;;
25023;SDS011;13033;50.936;5.334;2022-12-07T17:05:46;11.65;;;6.90;;